Time;durP1;ratioP1;P1;durP2;ratioP2;P2;SDS_P1;SDS_P2;PMS_P1;PMS_P2;Temp;Humidity;BMP_temperature;BMP_pressure;BME280_temperature;BME280_humidity;BME280_pressure;Samples;Min_cycle;Max_cycle;Signal;HPM_P1;HPM_P2
2022/11/11 00:01:49;;;;;;;3.10;2.30;;;20.00;54.80;;;;;;5112956;28;20122;-10
2022/11/11 00:04:33;;;;;;;4.57;2.20;;;20.00;54.80;;;;;;5112786;28;20066;-10
2022/11/11 00:07:17;;;;;;;5.25;2.10;;;20.00;54.80;;;;;;5112659;28;20098;-11
2022/11/11 00:10:01;;;;;;;4.35;2.35;;;20.00;54.80;;;;;;5112696;28;20054;-10
2022/11/11 00:12:45;;;;;;;3.30;2.05;;;19.90;54.80;;;;;;5112751;28;20054;-10
2022/11/11 00:15:29;;;;;;;3.10;1.70;;;19.90;54.80;;;;;;5112907;28;20498;-11
2022/11/11 00:27:31;;;;;;;3.33;1.65;;;19.90;54.80;;;;;;5116738;28;20134;-10
2022/11/11 00:30:16;;;;;;;3.55;2.05;;;20.00;54.90;;;;;;5116064;28;20594;-10
2022/11/11 00:33:00;;;;;;;5.10;2.05;;;20.00;54.90;;;;;;5116587;28;20062;-10
2022/11/11 00:35:53;;;;;;;3.22;1.80;;;20.00;54.80;;;;;;5116601;28;20047;-10
2022/11/11 00:38:48;;;;;;;4.78;2.00;;;20.00;54.80;;;;;;5116100;28;20058;-11
2022/11/11 00:41:33;;;;;;;2.88;1.80;;;19.90;54.80;;;;;;5116159;28;20058;-10
2022/11/11 00:44:17;;;;;;;3.05;2.00;;;20.00;54.90;;;;;;5116162;28;20502;-10
2022/11/11 00:53:14;;;;;;;2.60;1.70;;;19.90;54.80;;;;;;5116074;28;20066;-10
2022/11/11 00:55:58;;;;;;;3.40;2.08;;;19.90;55.40;;;;;;5116044;28;20503;-10
2022/11/11 00:58:43;;;;;;;2.65;1.80;;;19.90;54.80;;;;;;5115674;28;20067;-10
2022/11/11 01:01:28;;;;;;;5.10;2.05;;;19.90;54.90;;;;;;5116009;28;20104;-10
2022/11/11 01:04:12;;;;;;;3.60;2.00;;;19.90;54.90;;;;;;5115923;28;20552;-10
2022/11/11 01:06:56;;;;;;;6.53;2.03;;;19.90;54.80;;;;;;5115739;28;20103;-10
2022/11/11 01:09:40;;;;;;;3.35;1.95;;;19.90;55.40;;;;;;5115745;28;20054;-10
2022/11/11 01:12:24;;;;;;;4.78;2.20;;;19.90;54.90;;;;;;5115497;28;20189;-10
2022/11/11 01:15:08;;;;;;;3.47;1.77;;;19.90;54.90;;;;;;5115740;28;20111;-10
2022/11/11 01:17:53;;;;;;;3.92;2.00;;;19.90;54.90;;;;;;5112628;28;20522;-10
2022/11/11 01:20:38;;;;;;;4.82;1.70;;;19.90;54.90;;;;;;5115405;28;20054;-10
2022/11/11 01:23:22;;;;;;;4.75;2.30;;;19.90;54.90;;;;;;5115544;28;20096;-10
2022/11/11 01:26:12;;;;;;;2.90;1.88;;;19.90;55.00;;;;;;5115281;28;20070;-10
2022/11/11 01:28:56;;;;;;;3.92;1.90;;;19.90;55.00;;;;;;5113675;28;20057;-11
2022/11/11 01:31:40;;;;;;;3.58;1.88;;;19.90;55.00;;;;;;5115483;28;20059;-10
2022/11/11 01:34:26;;;;;;;3.67;1.95;;;19.80;54.90;;;;;;5115115;28;20614;-10
2022/11/11 01:37:11;;;;;;;3.60;1.75;;;19.90;55.00;;;;;;5115281;28;20571;-10
2022/11/11 01:39:55;;;;;;;3.47;1.77;;;19.90;55.00;;;;;;5115094;28;20080;-10
2022/11/11 01:42:51;;;;;;;4.07;2.03;;;19.90;55.00;;;;;;5115276;28;20082;-10
2022/11/11 01:46:02;;;;;;;3.35;1.92;;;19.90;55.00;;;;;;5115163;28;20082;-10
2022/11/11 01:52:17;;;;;;;3.25;1.70;;;19.90;55.10;;;;;;5115376;28;20536;-10
2022/11/11 01:55:12;;;;;;;3.25;1.75;;;19.80;55.00;;;;;;5115018;28;20090;-10
2022/11/11 01:58:07;;;;;;;3.90;2.22;;;19.80;55.00;;;;;;5114839;28;20058;-11
2022/11/11 02:00:52;;;;;;;2.28;1.80;;;19.80;55.00;;;;;;5114987;28;20139;-10
2022/11/11 02:03:40;;;;;;;2.85;1.92;;;19.80;55.10;;;;;;5114667;28;20127;-10
2022/11/11 02:06:26;;;;;;;3.15;1.50;;;19.80;55.10;;;;;;5114801;28;20063;-10
2022/11/11 02:09:12;;;;;;;3.17;1.55;;;19.80;55.10;;;;;;5115092;28;20054;-10
2022/11/11 02:15:03;;;;;;;3.45;2.00;;;19.80;55.60;;;;;;5114592;28;20054;-10
2022/11/11 02:17:49;;;;;;;3.55;2.13;;;19.80;55.10;;;;;;5114392;28;20132;-10
2022/11/11 02:20:37;;;;;;;3.00;1.60;;;19.80;55.10;;;;;;5114283;28;20050;-10
2022/11/11 02:23:36;;;;;;;2.70;1.60;;;19.80;55.20;;;;;;5114577;28;20058;-10
2022/11/11 02:26:21;;;;;;;3.13;1.70;;;19.80;55.10;;;;;;5114390;28;20529;-10
2022/11/11 02:29:18;;;;;;;2.65;1.67;;;19.80;55.20;;;;;;5111541;28;20101;-10
2022/11/11 02:32:02;;;;;;;2.78;1.80;;;19.80;55.20;;;;;;5114413;28;20092;-10
2022/11/11 02:34:46;;;;;;;2.75;1.90;;;19.80;55.20;;;;;;5114685;28;20491;-10
2022/11/11 02:37:30;;;;;;;2.40;1.77;;;19.80;55.30;;;;;;5114331;28;20398;-10
2022/11/11 02:40:22;;;;;;;3.08;2.03;;;19.80;55.30;;;;;;5113574;28;20080;-10
2022/11/11 02:43:06;;;;;;;3.45;1.80;;;19.80;55.30;;;;;;5113980;28;20058;-10
2022/11/11 02:45:50;;;;;;;2.28;1.50;;;19.80;55.30;;;;;;5114333;28;20094;-10
2022/11/11 02:48:34;;;;;;;3.67;1.77;;;19.80;55.40;;;;;;5110609;28;20108;-10
2022/11/11 02:51:19;;;;;;;3.30;1.50;;;19.80;55.30;;;;;;5113922;28;20051;-10
2022/11/11 02:54:05;;;;;;;2.15;1.45;;;19.80;55.30;;;;;;5114173;28;20124;-10
2022/11/11 02:57:07;;;;;;;4.20;1.85;;;19.80;55.40;;;;;;5114344;28;20103;-10
2022/11/11 02:59:51;;;;;;;1.65;1.38;;;19.80;55.50;;;;;;5114304;28;20074;-10
2022/11/11 03:02:36;;;;;;;2.90;1.42;;;19.80;55.50;;;;;;5114312;28;20101;-10
2022/11/11 03:05:20;;;;;;;2.72;1.73;;;19.80;55.40;;;;;;5114240;28;20073;-10
2022/11/11 03:08:05;;;;;;;2.70;1.75;;;19.80;55.90;;;;;;5113946;28;20053;-11
2022/11/11 03:10:48;;;;;;;4.15;1.92;;;19.80;55.40;;;;;;5113623;28;20050;-10
2022/11/11 03:13:33;;;;;;;4.40;1.80;;;19.80;55.40;;;;;;5113584;28;20082;-10
2022/11/11 03:19:28;;;;;;;2.60;1.90;;;19.80;55.30;;;;;;5097412;28;20138;-10
2022/11/11 03:22:12;;;;;;;2.45;1.63;;;19.80;55.30;;;;;;5113667;28;20112;-11
2022/11/11 03:27:59;;;;;;;2.80;1.40;;;19.80;55.20;;;;;;5113594;28;20532;-10
2022/11/11 03:30:48;;;;;;;2.72;1.55;;;19.90;55.20;;;;;;5112987;28;20098;-11
2022/11/11 03:33:32;;;;;;;2.92;1.50;;;19.90;55.60;;;;;;5113317;28;20089;-10
2022/11/11 03:36:16;;;;;;;2.67;1.65;;;20.00;54.90;;;;;;5113273;28;20074;-10
2022/11/11 03:39:00;;;;;;;3.35;2.00;;;20.00;54.90;;;;;;5113474;28;20143;-10
2022/11/11 03:41:44;;;;;;;4.93;2.13;;;20.00;54.80;;;;;;5113615;28;20490;-10
2022/11/11 03:44:28;;;;;;;2.17;1.52;;;20.00;54.80;;;;;;5113362;28;20058;-10
2022/11/11 03:47:15;;;;;;;3.53;1.70;;;20.10;54.70;;;;;;5113134;28;20419;-10
2022/11/11 03:49:59;;;;;;;2.38;1.73;;;20.10;54.60;;;;;;5113019;28;20143;-11
2022/11/11 03:52:43;;;;;;;3.15;1.83;;;20.10;54.60;;;;;;5115584;28;20062;-11
2022/11/11 03:55:28;;;;;;;4.00;1.98;;;20.10;54.50;;;;;;5116960;28;20059;-10
2022/11/11 03:58:13;;;;;;;2.92;1.83;;;20.20;54.50;;;;;;5116687;28;20062;-10
2022/11/11 04:00:57;;;;;;;2.88;1.55;;;20.20;54.30;;;;;;5116433;28;20058;-10
2022/11/11 04:16:07;;;;;;;2.08;1.30;;;20.30;54.00;;;;;;5116527;28;20053;-11
2022/11/11 04:21:55;;;;;;;2.65;1.88;;;20.40;53.80;;;;;;5116557;28;20089;-10
2022/11/11 04:27:42;;;;;;;2.22;1.42;;;20.50;53.70;;;;;;5116001;28;20054;-10
2022/11/11 04:30:26;;;;;;;2.25;1.45;;;20.50;53.60;;;;;;5116136;28;20507;-10
2022/11/11 04:33:10;;;;;;;2.20;1.42;;;20.50;53.50;;;;;;5116360;28;20055;-10
2022/11/11 04:35:54;;;;;;;2.35;1.55;;;20.60;53.40;;;;;;5116284;28;20062;-10
2022/11/11 04:41:41;;;;;;;1.55;1.30;;;20.60;53.30;;;;;;5116249;28;20051;-11
2022/11/11 04:47:28;;;;;;;2.38;1.33;;;20.70;53.20;;;;;;5115654;28;20067;-10
2022/11/11 04:50:13;;;;;;;3.50;1.60;;;20.70;53.30;;;;;;5115963;28;20445;-10
2022/11/11 04:52:57;;;;;;;1.95;1.20;;;20.70;53.20;;;;;;5115767;28;20066;-10
2022/11/11 04:58:46;;;;;;;2.70;1.40;;;20.70;53.20;;;;;;5115305;28;20063;-10
2022/11/11 05:04:33;;;;;;;2.35;1.52;;;20.70;53.20;;;;;;5115484;28;20057;-10
2022/11/11 05:10:20;;;;;;;1.75;1.25;;;20.70;53.20;;;;;;5115712;28;20132;-10
2022/11/11 05:22:28;;;;;;;2.30;1.63;;;20.70;53.30;;;;;;5115326;28;20517;-10
2022/11/11 05:25:24;;;;;;;3.28;1.48;;;20.70;53.40;;;;;;5113846;28;20058;-10
2022/11/11 05:28:09;;;;;;;1.55;1.33;;;20.70;53.40;;;;;;5115735;28;20061;-10
2022/11/11 05:30:53;;;;;;;4.45;1.30;;;20.70;53.70;;;;;;5115092;28;20058;-10
2022/11/11 05:33:37;;;;;;;2.13;1.20;;;20.80;53.50;;;;;;5115418;28;20081;-10
2022/11/11 05:36:21;;;;;;;1.80;1.42;;;20.70;53.40;;;;;;5115137;28;20074;-10
2022/11/11 05:39:06;;;;;;;2.88;1.60;;;20.70;53.40;;;;;;5114779;28;20100;-11
2022/11/11 05:41:50;;;;;;;2.85;1.38;;;20.70;53.50;;;;;;5115507;28;20093;-10
2022/11/11 05:44:34;;;;;;;2.45;1.42;;;20.70;53.40;;;;;;5115239;28;20059;-10
2022/11/11 05:47:18;;;;;;;2.20;1.40;;;20.70;53.50;;;;;;5114940;28;20098;-10
2022/11/11 05:50:03;;;;;;;2.53;1.50;;;20.70;53.50;;;;;;5114707;28;20507;-10
2022/11/11 05:52:49;;;;;;;2.60;1.27;;;20.70;53.40;;;;;;5114842;28;20139;-10
2022/11/11 05:55:33;;;;;;;3.40;1.50;;;20.70;53.50;;;;;;5114786;28;20084;-10
2022/11/11 05:58:20;;;;;;;2.20;1.30;;;20.70;53.40;;;;;;5114661;28;20449;-10
2022/11/11 06:01:04;;;;;;;2.30;1.27;;;20.70;53.40;;;;;;5114675;28;20055;-10
2022/11/11 06:03:49;;;;;;;1.65;1.27;;;20.70;53.40;;;;;;5114949;28;20128;-10
2022/11/11 06:06:35;;;;;;;2.65;1.40;;;20.70;53.50;;;;;;5111759;28;20112;-10
2022/11/11 06:09:19;;;;;;;2.75;1.45;;;20.70;53.50;;;;;;5114726;28;20066;-11
2022/11/11 06:12:03;;;;;;;2.50;1.40;;;20.70;53.50;;;;;;5114471;28;20097;-10
2022/11/11 06:14:47;;;;;;;3.42;1.77;;;20.70;53.50;;;;;;5113748;28;20094;-10
2022/11/11 06:17:33;;;;;;;2.88;1.20;;;20.70;53.50;;;;;;5114738;28;20396;-10
2022/11/11 06:20:17;;;;;;;1.40;1.20;;;20.70;53.50;;;;;;5114671;28;20156;-11
2022/11/11 06:23:02;;;;;;;2.92;1.35;;;20.70;54.00;;;;;;5114880;28;20100;-10
2022/11/11 06:28:54;;;;;;;1.60;1.27;;;20.70;53.50;;;;;;5113978;28;20093;-10
2022/11/11 06:31:39;;;;;;;2.17;1.27;;;20.70;53.50;;;;;;5114090;28;20054;-10
2022/11/11 06:34:24;;;;;;;2.08;1.20;;;20.70;53.50;;;;;;5114202;28;20162;-10
2022/11/11 06:37:07;;;;;;;1.27;1.17;;;20.70;53.40;;;;;;5114026;28;20101;-10
2022/11/11 06:39:52;;;;;;;1.75;1.25;;;20.70;53.40;;;;;;5114061;28;20445;-10
2022/11/11 06:42:36;;;;;;;1.48;1.17;;;20.70;53.40;;;;;;5114271;28;20096;-10
2022/11/11 06:45:22;;;;;;;2.13;1.40;;;20.70;53.40;;;;;;5114283;28;20054;-11
2022/11/11 06:48:06;;;;;;;1.90;1.30;;;20.70;53.30;;;;;;5114207;28;20101;-10
2022/11/11 06:50:51;;;;;;;1.77;1.20;;;20.70;53.90;;;;;;5114256;28;20050;-10
2022/11/11 06:53:36;;;;;;;1.73;1.27;;;20.70;53.30;;;;;;5114429;28;20054;-10
2022/11/11 06:56:20;;;;;;;1.73;0.90;;;20.70;53.30;;;;;;5114066;28;20502;-11
2022/11/11 06:59:05;;;;;;;2.47;1.38;;;20.70;53.30;;;;;;5113690;28;20062;-10
2022/11/11 07:01:50;;;;;;;3.20;1.65;;;20.80;53.40;;;;;;5113835;28;20177;-10
2022/11/11 07:04:34;;;;;;;2.83;1.50;;;20.70;52.20;;;;;;5113742;28;20074;-10
2022/11/11 07:07:18;;;;;;;4.05;1.17;;;20.70;51.20;;;;;;5113660;28;20063;-11
2022/11/11 07:10:06;;;;;;;3.75;1.42;;;20.60;50.60;;;;;;5113181;28;20091;-10
2022/11/11 07:12:50;;;;;;;2.17;1.33;;;20.60;50.70;;;;;;5113644;28;20054;-10
2022/11/11 07:15:35;;;;;;;2.03;1.40;;;20.50;50.70;;;;;;5113093;28;20540;-10
2022/11/11 07:18:20;;;;;;;2.30;1.52;;;20.50;50.80;;;;;;5113134;28;20125;-10
2022/11/11 07:21:05;;;;;;;2.17;1.50;;;20.50;50.80;;;;;;5112909;28;20415;-10
2022/11/11 07:23:49;;;;;;;2.60;1.73;;;20.50;50.70;;;;;;5113529;28;20062;-10
2022/11/11 07:26:34;;;;;;;2.95;1.35;;;20.50;50.80;;;;;;5113294;28;20066;-11
2022/11/11 07:29:18;;;;;;;1.92;1.52;;;20.50;50.80;;;;;;5113176;28;20121;-11
2022/11/11 07:32:03;;;;;;;2.13;1.30;;;20.50;50.70;;;;;;5113423;28;20143;-10
2022/11/11 07:34:48;;;;;;;2.63;1.20;;;20.50;50.80;;;;;;5113528;28;20074;-10
2022/11/11 07:37:32;;;;;;;2.22;1.25;;;20.50;50.70;;;;;;5113118;28;20097;-10
2022/11/11 07:40:18;;;;;;;2.15;1.60;;;20.50;50.70;;;;;;5113028;28;20457;-10
2022/11/11 07:43:02;;;;;;;2.72;1.40;;;20.50;50.70;;;;;;5113292;28;20104;-10
2022/11/11 07:45:46;;;;;;;3.13;1.20;;;20.50;50.70;;;;;;5112980;28;20062;-10
2022/11/11 07:48:30;;;;;;;3.20;1.42;;;20.50;50.60;;;;;;5112752;28;20181;-11
2022/11/11 07:51:14;;;;;;;1.88;1.40;;;20.40;50.60;;;;;;5112796;28;20131;-10
2022/11/11 07:53:58;;;;;;;2.60;1.60;;;20.40;50.60;;;;;;5113242;28;20103;-10
2022/11/11 07:56:43;;;;;;;2.08;1.48;;;20.40;50.70;;;;;;5112961;28;20511;-10
2022/11/11 07:59:27;;;;;;;1.88;1.52;;;20.50;50.60;;;;;;5112913;28;20510;-10
2022/11/11 08:02:12;;;;;;;1.85;1.40;;;20.40;50.60;;;;;;5113030;28;20089;-10
2022/11/11 08:04:56;;;;;;;2.08;1.42;;;20.40;50.70;;;;;;5112776;28;20054;-11
2022/11/11 08:07:41;;;;;;;4.22;1.45;;;20.40;50.70;;;;;;5112711;28;20063;-10
2022/11/11 08:10:25;;;;;;;1.60;1.27;;;20.40;50.60;;;;;;5112855;28;20116;-10
2022/11/11 08:16:14;;;;;;;3.42;1.50;;;20.40;50.70;;;;;;5112809;28;20057;-10
2022/11/11 08:18:59;;;;;;;2.53;1.50;;;20.50;50.60;;;;;;5108425;28;20050;-10
2022/11/11 08:21:44;;;;;;;1.77;1.23;;;20.40;50.60;;;;;;5112759;28;20502;-11
2022/11/11 08:24:28;;;;;;;4.50;1.80;;;20.40;50.60;;;;;;5112431;28;20077;-10
2022/11/11 08:27:12;;;;;;;1.90;1.20;;;20.50;50.70;;;;;;5111947;28;20172;-11
2022/11/11 08:29:56;;;;;;;2.35;1.23;;;20.40;50.60;;;;;;5112510;28;20082;-10
2022/11/11 08:32:40;;;;;;;2.25;1.38;;;20.40;50.40;;;;;;5112430;28;20067;-10
2022/11/11 08:35:25;;;;;;;2.25;1.20;;;20.40;50.50;;;;;;5110826;28;20067;-10
2022/11/11 08:38:10;;;;;;;3.22;1.80;;;20.50;50.60;;;;;;5113915;28;20054;-11
2022/11/11 08:40:54;;;;;;;1.90;1.23;;;20.40;50.40;;;;;;5114256;28;20050;-10
2022/11/11 08:43:38;;;;;;;2.78;1.67;;;20.40;50.50;;;;;;5115847;28;20085;-10
2022/11/11 08:46:23;;;;;;;1.92;1.25;;;20.40;50.40;;;;;;5116007;28;20205;-10
2022/11/11 08:49:08;;;;;;;3.30;1.30;;;20.40;50.40;;;;;;5112952;28;20089;-10
2022/11/11 08:51:52;;;;;;;2.92;1.67;;;20.50;50.50;;;;;;5115539;28;20543;-10
2022/11/11 08:54:36;;;;;;;2.10;1.30;;;20.50;50.40;;;;;;5116003;28;20051;-10
2022/11/11 08:57:20;;;;;;;2.17;1.60;;;20.40;50.60;;;;;;5115621;28;20059;-11
2022/11/11 09:00:05;;;;;;;1.65;1.45;;;20.50;50.40;;;;;;5115873;28;20501;-10
2022/11/11 09:02:49;;;;;;;2.08;1.33;;;20.50;50.40;;;;;;5115850;28;20094;-10
2022/11/11 09:05:36;;;;;;;1.77;1.40;;;20.50;50.40;;;;;;5115586;28;20108;-10
2022/11/11 09:08:20;;;;;;;5.10;1.48;;;20.50;50.30;;;;;;5115368;28;20070;-10
2022/11/11 09:11:05;;;;;;;5.68;1.63;;;20.50;50.30;;;;;;5115359;28;20086;-10
2022/11/11 09:13:50;;;;;;;2.47;1.50;;;20.50;50.40;;;;;;5115306;28;20120;-10
2022/11/11 09:16:35;;;;;;;3.05;1.30;;;20.50;50.30;;;;;;5115407;28;20089;-10
2022/11/11 09:19:20;;;;;;;4.05;1.70;;;20.50;50.30;;;;;;5115366;28;20058;-10
2022/11/11 09:22:05;;;;;;;2.55;1.20;;;20.50;50.20;;;;;;5114705;28;20062;-10
2022/11/11 09:24:50;;;;;;;3.15;1.60;;;20.50;50.30;;;;;;5115277;28;20455;-10
2022/11/11 09:27:35;;;;;;;4.88;1.42;;;20.50;50.20;;;;;;5115175;28;20101;-10
2022/11/11 09:30:22;;;;;;;2.78;1.40;;;20.60;50.30;;;;;;5115010;28;20071;-10
2022/11/11 09:33:08;;;;;;;5.10;1.85;;;20.50;50.20;;;;;;5115114;28;20116;-10
2022/11/11 09:35:53;;;;;;;4.93;1.80;;;20.50;50.20;;;;;;5115334;28;20479;-10
2022/11/11 09:38:37;;;;;;;3.72;1.60;;;20.50;50.20;;;;;;5114411;28;20059;-10
2022/11/11 09:41:31;;;;;;;4.68;1.92;;;20.50;50.20;;;;;;5114969;28;20506;-10
2022/11/11 09:44:34;;;;;;;7.47;2.42;;;20.50;50.20;;;;;;5114883;28;20112;-10
2022/11/11 09:47:24;;;;;;;7.95;2.28;;;20.60;50.20;;;;;;5114704;28;20058;-11
2022/11/11 09:50:11;;;;;;;6.53;2.25;;;20.50;50.20;;;;;;5113491;28;20444;-10
2022/11/11 09:53:11;;;;;;;7.40;2.95;;;20.60;50.20;;;;;;5114986;28;20445;-10
2022/11/11 09:56:00;;;;;;;11.65;2.90;;;20.60;50.20;;;;;;5114718;28;20078;-10
2022/11/11 09:58:51;;;;;;;12.15;3.40;;;20.60;50.10;;;;;;5114970;28;20510;-12
2022/11/11 10:01:39;;;;;;;;;;;20.60;50.10;;;;;;5114981;28;20093;-11
2022/11/11 10:04:51;;;;;;;10.65;2.92;;;20.60;50.10;;;;;;5114555;28;19937;-11
2022/11/11 10:07:47;;;;;;;11.20;3.55;;;20.60;50.10;;;;;;5114408;28;20147;-12
2022/11/11 10:10:43;;;;;;;15.07;3.42;;;20.50;50.60;;;;;;5114631;28;20051;-11
2022/11/11 10:13:33;;;;;;;17.27;3.38;;;20.50;50.10;;;;;;5114072;28;20048;-12
2022/11/11 10:16:21;;;;;;;12.57;4.20;;;20.50;50.10;;;;;;5095363;28;20054;-11
2022/11/11 10:19:43;;;;;;;16.65;4.18;;;20.60;50.10;;;;;;5114483;28;20089;-11
2022/11/11 10:22:34;;;;;;;16.88;4.00;;;20.60;50.10;;;;;;5114526;28;20058;-11
2022/11/11 10:25:21;;;;;;;19.80;4.28;;;20.60;50.10;;;;;;5114348;28;20083;-11
2022/11/11 10:28:17;;;;;;;15.75;4.68;;;20.60;50.60;;;;;;5114353;28;20062;-11
2022/11/11 10:31:10;;;;;;;20.83;4.55;;;20.60;50.10;;;;;;5114017;28;20108;-12
2022/11/11 10:34:12;;;;;;;18.33;4.80;;;20.60;50.00;;;;;;5113835;28;20502;-11
2022/11/11 10:36:58;;;;;;;23.63;4.85;;;20.60;50.00;;;;;;5113818;28;20070;-11
2022/11/11 10:39:56;;;;;;;20.38;3.88;;;20.60;50.70;;;;;;5113627;28;20055;-11
2022/11/11 10:42:41;;;;;;;19.90;4.38;;;20.60;50.20;;;;;;5113736;28;20059;-11
2022/11/11 10:45:32;;;;;;;28.13;5.35;;;20.60;50.10;;;;;;5114098;28;20482;-11
2022/11/11 10:48:25;;;;;;;19.70;5.00;;;20.60;50.60;;;;;;5114016;28;20128;-12
2022/11/11 10:51:12;;;;;;;19.95;5.63;;;20.60;50.00;;;;;;5113633;28;20082;-11
2022/11/11 10:54:08;;;;;;;22.95;5.35;;;20.60;50.00;;;;;;5113120;28;20554;-11
2022/11/11 10:57:12;;;;;;;21.63;5.32;;;20.60;49.90;;;;;;5113582;28;20058;-11
2022/11/11 11:00:05;;;;;;;19.33;5.45;;;20.60;49.90;;;;;;5113382;28;20055;-12
2022/11/11 11:03:03;;;;;;;22.88;4.72;;;20.60;49.90;;;;;;5113451;28;20081;-11
2022/11/11 11:05:55;;;;;;;30.90;5.93;;;20.60;49.90;;;;;;5113467;28;20074;-11
2022/11/11 11:08:45;;;;;;;20.27;5.70;;;20.60;49.90;;;;;;5113945;28;20055;-11
2022/11/11 11:11:41;;;;;;;23.73;6.20;;;20.60;49.80;;;;;;5112948;28;20399;-11
2022/11/11 11:14:33;;;;;;;17.85;4.50;;;20.60;49.90;;;;;;5113345;28;20111;-11
2022/11/11 11:17:31;;;;;;;22.23;5.80;;;20.60;49.90;;;;;;5113544;28;20050;-11
2022/11/11 11:20:19;;;;;;;18.05;4.95;;;20.60;49.80;;;;;;5112840;28;20086;-11
2022/11/11 11:23:03;;;;;;;22.88;5.75;;;20.60;49.80;;;;;;5113285;28;20054;-11
2022/11/11 11:25:56;;;;;;;20.20;4.85;;;20.70;49.90;;;;;;5113445;28;20059;-11
2022/11/11 11:28:57;;;;;;;20.35;5.90;;;20.60;49.80;;;;;;5113489;28;20062;-11
2022/11/11 11:31:46;;;;;;;19.42;5.10;;;20.60;49.80;;;;;;5112855;28;20502;-11
2022/11/11 11:34:45;;;;;;;26.65;6.00;;;20.60;49.80;;;;;;5112916;28;20555;-11
2022/11/11 11:37:29;;;;;;;16.23;5.28;;;20.70;49.90;;;;;;5112744;28;20069;-12
2022/11/11 11:40:14;;;;;;;19.08;5.68;;;20.70;49.80;;;;;;5112668;28;20113;-12
2022/11/11 11:42:58;;;;;;;24.73;5.55;;;20.70;49.80;;;;;;5113401;28;20066;-11
2022/11/11 11:45:52;;;;;;;13.88;4.60;;;20.70;49.80;;;;;;5113171;28;20135;-11
2022/11/11 11:48:49;;;;;;;25.20;6.63;;;20.60;49.80;;;;;;5112672;28;20058;-11
2022/11/11 11:51:46;;;;;;;21.85;6.53;;;20.70;49.80;;;;;;5109587;28;20051;-11
2022/11/11 11:54:57;;;;;;;23.40;4.95;;;20.70;50.00;;;;;;5109441;28;20116;-11
2022/11/11 11:57:56;;;;;;;23.85;4.70;;;20.70;49.90;;;;;;5112429;28;20078;-11
2022/11/11 12:01:20;;;;;;;21.30;5.10;;;20.70;49.80;;;;;;5112432;28;20070;-12
2022/11/11 12:04:24;;;;;;;20.00;5.40;;;20.70;49.90;;;;;;5112374;28;20062;-11
2022/11/11 12:07:34;;;;;;;17.35;4.68;;;20.70;49.80;;;;;;5112772;28;20146;-11
2022/11/11 12:10:48;;;;;;;18.83;5.15;;;20.70;49.90;;;;;;5112521;28;20047;-11
2022/11/11 12:14:18;;;;;;;15.02;4.88;;;20.70;49.90;;;;;;5114956;28;20194;-11
2022/11/11 12:17:40;;;;;;;19.38;5.07;;;20.70;49.90;;;;;;5116484;28;20109;-11
2022/11/11 12:20:38;;;;;;;16.55;4.97;;;20.70;50.00;;;;;;5115258;28;20104;-11
2022/11/11 12:23:53;;;;;;;16.85;4.43;;;20.70;50.10;;;;;;5116023;28;20116;-11
2022/11/11 12:27:19;;;;;;;15.57;4.20;;;20.70;50.10;;;;;;5115865;28;20058;-11
2022/11/11 12:30:10;;;;;;;16.48;4.43;;;20.60;50.20;;;;;;5115896;28;20108;-11
2022/11/11 12:33:17;;;;;;;17.50;5.00;;;20.60;50.30;;;;;;5116089;28;20086;-11
2022/11/11 12:36:28;;;;;;;17.85;4.88;;;20.60;50.30;;;;;;5115717;28;20057;-11
2022/11/11 12:39:31;;;;;;;17.58;5.05;;;20.60;50.30;;;;;;5115592;28;20145;-12
2022/11/11 12:42:44;;;;;;;16.75;4.85;;;20.60;50.40;;;;;;5115617;28;20410;-11
2022/11/11 12:45:48;;;;;;;14.20;4.50;;;20.60;50.30;;;;;;5083334;28;20050;-11
2022/11/11 12:49:05;;;;;;;15.38;4.45;;;20.60;50.40;;;;;;5115531;28;20058;-11
2022/11/11 12:51:52;;;;;;;15.95;4.50;;;20.60;50.40;;;;;;5115462;28;20051;-11
2022/11/11 12:54:55;;;;;;;16.05;4.30;;;20.60;50.40;;;;;;5116121;28;20090;-12
2022/11/11 12:58:01;;;;;;;17.95;5.70;;;20.60;50.30;;;;;;5115463;28;20142;-11
2022/11/11 13:00:48;;;;;;;11.65;5.13;;;20.60;50.30;;;;;;5115502;28;20055;-11
2022/11/11 13:03:52;;;;;;;17.38;4.47;;;20.60;50.20;;;;;;5115084;28;20070;-11
2022/11/11 13:07:16;;;;;;;13.00;4.25;;;20.60;50.20;;;;;;5115097;28;20520;-11
2022/11/11 13:10:12;;;;;;;15.88;4.40;;;20.70;50.30;;;;;;5115405;28;20165;-11
2022/11/11 13:13:02;;;;;;;13.52;4.57;;;20.70;50.20;;;;;;5115316;28;20055;-11
2022/11/11 13:15:47;;;;;;;9.57;4.25;;;20.70;50.20;;;;;;5115115;28;20098;-12
2022/11/11 13:18:48;;;;;;;12.35;3.83;;;20.70;50.20;;;;;;5115388;28;20461;-11
2022/11/11 13:21:52;;;;;;;13.60;4.40;;;20.70;50.20;;;;;;5115192;28;20412;-11
2022/11/11 13:24:36;;;;;;;13.25;4.00;;;20.70;50.20;;;;;;5114701;28;20342;-11
2022/11/11 13:27:43;;;;;;;13.82;4.20;;;20.70;50.20;;;;;;5099480;28;20066;-11
2022/11/11 13:30:40;;;;;;;12.10;4.30;;;20.70;50.20;;;;;;5112905;28;20112;-11
2022/11/11 13:33:40;;;;;;;12.45;4.15;;;20.70;50.30;;;;;;5115151;28;20067;-11
2022/11/11 13:36:28;;;;;;;12.00;4.25;;;20.70;50.30;;;;;;5115120;28;20094;-11
2022/11/11 13:39:45;;;;;;;14.95;4.82;;;20.70;50.30;;;;;;5115208;28;20051;-11
2022/11/11 13:42:40;;;;;;;15.35;4.57;;;20.70;50.20;;;;;;5108153;28;20085;-11
2022/11/11 13:45:33;;;;;;;11.55;3.78;;;20.70;50.20;;;;;;5114488;28;20059;-11
2022/11/11 13:48:26;;;;;;;15.63;4.45;;;20.70;50.20;;;;;;5114899;28;20121;-11
2022/11/11 13:51:30;;;;;;;9.77;3.65;;;20.70;50.20;;;;;;5114658;28;20058;-11
2022/11/11 13:54:30;;;;;;;12.23;3.80;;;20.70;50.30;;;;;;5114891;28;20422;-11
2022/11/11 13:57:25;;;;;;;9.68;3.58;;;20.70;50.30;;;;;;5114532;28;20058;-12
2022/11/11 14:00:16;;;;;;;11.98;3.92;;;20.70;50.30;;;;;;5114482;28;20058;-11
2022/11/11 14:03:21;;;;;;;10.52;3.47;;;20.70;50.30;;;;;;5114182;28;20112;-12
2022/11/11 14:06:13;;;;;;;13.10;3.95;;;20.70;50.30;;;;;;5114134;28;20461;-11
2022/11/11 14:08:57;;;;;;;13.18;4.13;;;20.60;50.30;;;;;;5114104;28;20086;-11
2022/11/11 14:11:41;;;;;;;11.13;4.40;;;20.60;50.30;;;;;;5114207;28;20053;-11
2022/11/11 14:14:31;;;;;;;12.18;3.90;;;20.60;50.30;;;;;;5114194;28;20132;-11
2022/11/11 14:17:17;;;;;;;11.50;3.55;;;20.60;50.30;;;;;;5114241;28;20464;-11
2022/11/11 14:20:29;;;;;;;11.73;3.35;;;20.60;50.30;;;;;;5113962;28;20055;-11
2022/11/11 14:23:25;;;;;;;11.02;3.67;;;20.60;50.40;;;;;;5114445;28;20419;-11
2022/11/11 14:26:10;;;;;;;11.57;4.10;;;20.60;50.40;;;;;;5114180;28;20070;-11
2022/11/11 14:28:58;;;;;;;8.30;3.40;;;20.60;50.40;;;;;;5114087;28;20066;-11
2022/11/11 14:32:08;;;;;;;12.82;3.67;;;20.60;50.40;;;;;;5114382;28;20086;-11
2022/11/11 14:35:14;;;;;;;11.65;3.58;;;20.60;50.40;;;;;;5110534;28;20050;-11
2022/11/11 14:38:20;;;;;;;13.52;4.05;;;20.60;50.40;;;;;;5113922;28;20072;-11
2022/11/11 14:41:40;;;;;;;10.32;3.30;;;20.60;50.40;;;;;;5113913;28;20406;-11
2022/11/11 14:44:30;;;;;;;9.63;3.83;;;20.60;50.50;;;;;;5110082;28;20054;-11
2022/11/11 14:47:14;;;;;;;8.85;3.58;;;20.60;50.40;;;;;;5113842;28;20074;-11
2022/11/11 14:49:59;;;;;;;8.25;3.05;;;20.60;50.40;;;;;;5111493;28;20104;-11
2022/11/11 14:52:47;;;;;;;9.32;3.25;;;20.60;50.40;;;;;;5114170;28;20078;-11
2022/11/11 14:55:33;;;;;;;11.38;3.50;;;20.60;50.40;;;;;;5112602;28;20061;-12
2022/11/11 14:58:24;;;;;;;6.13;3.03;;;20.60;50.40;;;;;;5113932;28;20147;-12
2022/11/11 15:01:16;;;;;;;7.97;3.20;;;20.60;50.40;;;;;;5113954;28;20069;-11
2022/11/11 15:04:08;;;;;;;9.02;3.63;;;20.60;50.50;;;;;;5114003;28;20062;-11
2022/11/11 15:07:00;;;;;;;10.68;3.88;;;20.60;50.50;;;;;;5113178;28;20055;-12
2022/11/11 15:09:50;;;;;;;6.97;3.50;;;20.60;50.50;;;;;;5113589;28;20094;-11
2022/11/11 15:13:06;;;;;;;10.43;3.47;;;20.60;50.50;;;;;;5113634;28;20116;-11
2022/11/11 15:15:51;;;;;;;8.63;3.20;;;20.60;51.00;;;;;;5106355;28;20108;-12
2022/11/11 15:19:12;;;;;;;6.57;3.00;;;20.60;50.50;;;;;;5113806;28;20066;-11
2022/11/11 15:22:06;;;;;;;9.48;3.83;;;20.60;50.50;;;;;;5113718;28;20054;-12
2022/11/11 15:25:18;;;;;;;10.23;3.25;;;20.60;50.50;;;;;;5113523;28;20441;-11
2022/11/11 15:28:21;;;;;;;10.23;3.72;;;20.60;50.50;;;;;;5113309;28;20058;-12
2022/11/11 15:31:26;;;;;;;6.47;3.05;;;20.60;50.50;;;;;;5113096;28;20047;-11
2022/11/11 15:34:40;;;;;;;10.75;3.22;;;20.60;50.50;;;;;;5113625;28;20131;-11
2022/11/11 15:37:26;;;;;;;10.27;3.15;;;20.60;50.50;;;;;;5112939;28;20055;-11
2022/11/11 15:40:22;;;;;;;8.30;3.20;;;20.60;50.50;;;;;;5113448;28;20446;-11
2022/11/11 15:43:21;;;;;;;8.38;3.25;;;20.60;50.50;;;;;;5113466;28;20497;-11
2022/11/11 15:46:05;;;;;;;7.70;3.05;;;20.60;50.50;;;;;;5113426;28;20549;-11
2022/11/11 15:48:52;;;;;;;14.60;3.58;;;20.60;50.50;;;;;;5112076;28;20438;-11
2022/11/11 15:51:37;;;;;;;7.28;3.15;;;20.60;50.50;;;;;;5113050;28;20063;-11
2022/11/11 15:54:22;;;;;;;9.35;3.53;;;20.60;50.50;;;;;;5111155;28;20054;-11
2022/11/11 15:57:38;;;;;;;8.75;3.53;;;20.60;50.50;;;;;;5112897;28;20059;-11
2022/11/11 16:00:29;;;;;;;6.35;3.30;;;20.60;50.50;;;;;;5095480;28;20054;-11